sensor_id;sensor_type;location;lat;lon;timestamp;P1;durP1;ratioP1;P2;durP2;ratioP2
21527;SDS011;10925;49.102;-0.370;2023-06-05T00:00:47;20.80;;;5.50;;
21527;SDS011;10925;49.102;-0.370;2023-06-05T00:03:13;20.90;;;6.18;;
21527;SDS011;10925;49.102;-0.370;2023-06-05T00:05:39;20.00;;;5.20;;
21527;SDS011;10925;49.102;-0.370;2023-06-05T00:08:06;18.77;;;5.93;;
21527;SDS011;10925;49.102;-0.370;2023-06-05T00:10:32;27.05;;;5.88;;
21527;SDS011;10925;49.102;-0.370;2023-06-05T00:12:59;22.85;;;5.97;;
21527;SDS011;10925;49.102;-0.370;2023-06-05T00:15:26;18.23;;;5.15;;
21527;SDS011;10925;49.102;-0.370;2023-06-05T00:17:53;20.75;;;5.70;;
21527;SDS011;10925;49.102;-0.370;2023-06-05T00:20:20;21.70;;;6.05;;
21527;SDS011;10925;49.102;-0.370;2023-06-05T00:22:47;21.77;;;5.30;;
21527;SDS011;10925;49.102;-0.370;2023-06-05T00:25:15;18.75;;;5.80;;
21527;SDS011;10925;49.102;-0.370;2023-06-05T00:27:40;25.70;;;6.30;;
21527;SDS011;10925;49.102;-0.370;2023-06-05T00:30:07;22.52;;;6.07;;
21527;SDS011;10925;49.102;-0.370;2023-06-05T00:32:32;17.50;;;5.43;;
21527;SDS011;10925;49.102;-0.370;2023-06-05T00:34:59;17.65;;;5.22;;
21527;SDS011;10925;49.102;-0.370;2023-06-05T00:37:26;21.42;;;5.43;;
21527;SDS011;10925;49.102;-0.370;2023-06-05T00:39:53;21.73;;;5.65;;
21527;SDS011;10925;49.102;-0.370;2023-06-05T00:42:20;19.60;;;5.38;;
21527;SDS011;10925;49.102;-0.370;2023-06-05T00:44:47;18.38;;;5.80;;
21527;SDS011;10925;49.102;-0.370;2023-06-05T00:47:15;15.52;;;5.38;;
21527;SDS011;10925;49.102;-0.370;2023-06-05T00:49:43;16.48;;;5.60;;
21527;SDS011;10925;49.102;-0.370;2023-06-05T00:52:10;22.83;;;6.40;;
21527;SDS011;10925;49.102;-0.370;2023-06-05T00:54:36;25.48;;;6.10;;
21527;SDS011;10925;49.102;-0.370;2023-06-05T00:57:03;19.13;;;5.50;;
21527;SDS011;10925;49.102;-0.370;2023-06-05T00:59:30;23.15;;;5.97;;
21527;SDS011;10925;49.102;-0.370;2023-06-05T01:01:59;20.48;;;5.88;;
21527;SDS011;10925;49.102;-0.370;2023-06-05T01:04:26;19.25;;;6.07;;
21527;SDS011;10925;49.102;-0.370;2023-06-05T01:06:53;17.77;;;5.57;;
21527;SDS011;10925;49.102;-0.370;2023-06-05T01:09:19;27.70;;;6.00;;
21527;SDS011;10925;49.102;-0.370;2023-06-05T01:16:43;18.70;;;6.10;;
21527;SDS011;10925;49.102;-0.370;2023-06-05T01:19:13;19.95;;;5.97;;
21527;SDS011;10925;49.102;-0.370;2023-06-05T01:21:41;25.63;;;6.20;;
21527;SDS011;10925;49.102;-0.370;2023-06-05T01:24:07;25.67;;;6.30;;
21527;SDS011;10925;49.102;-0.370;2023-06-05T01:26:42;24.85;;;6.72;;
21527;SDS011;10925;49.102;-0.370;2023-06-05T01:29:11;22.77;;;6.97;;
21527;SDS011;10925;49.102;-0.370;2023-06-05T01:31:38;26.02;;;7.05;;
21527;SDS011;10925;49.102;-0.370;2023-06-05T01:34:07;25.75;;;6.72;;
21527;SDS011;10925;49.102;-0.370;2023-06-05T01:36:37;20.40;;;6.85;;
21527;SDS011;10925;49.102;-0.370;2023-06-05T01:39:03;15.07;;;6.05;;
21527;SDS011;10925;49.102;-0.370;2023-06-05T01:41:31;22.38;;;6.35;;
21527;SDS011;10925;49.102;-0.370;2023-06-05T01:43:59;26.98;;;7.32;;
21527;SDS011;10925;49.102;-0.370;2023-06-05T01:46:26;25.33;;;6.75;;
21527;SDS011;10925;49.102;-0.370;2023-06-05T01:48:53;26.75;;;6.85;;
21527;SDS011;10925;49.102;-0.370;2023-06-05T01:51:21;32.67;;;6.95;;
21527;SDS011;10925;49.102;-0.370;2023-06-05T01:53:46;25.88;;;7.40;;
21527;SDS011;10925;49.102;-0.370;2023-06-05T01:56:16;26.35;;;7.03;;
21527;SDS011;10925;49.102;-0.370;2023-06-05T01:58:46;23.85;;;6.53;;
21527;SDS011;10925;49.102;-0.370;2023-06-05T02:01:14;36.85;;;8.30;;
21527;SDS011;10925;49.102;-0.370;2023-06-05T02:03:42;29.77;;;7.20;;
21527;SDS011;10925;49.102;-0.370;2023-06-05T02:06:16;30.90;;;7.82;;
21527;SDS011;10925;49.102;-0.370;2023-06-05T02:08:43;31.08;;;7.75;;
21527;SDS011;10925;49.102;-0.370;2023-06-05T02:11:10;32.10;;;8.43;;
21527;SDS011;10925;49.102;-0.370;2023-06-05T02:13:37;21.70;;;7.50;;
21527;SDS011;10925;49.102;-0.370;2023-06-05T02:16:05;32.97;;;7.72;;
21527;SDS011;10925;49.102;-0.370;2023-06-05T02:18:32;36.72;;;8.85;;
21527;SDS011;10925;49.102;-0.370;2023-06-05T02:20:57;27.92;;;8.30;;
21527;SDS011;10925;49.102;-0.370;2023-06-05T02:23:24;22.92;;;7.13;;
21527;SDS011;10925;49.102;-0.370;2023-06-05T02:25:52;30.42;;;7.63;;
21527;SDS011;10925;49.102;-0.370;2023-06-05T02:28:20;35.63;;;8.82;;
21527;SDS011;10925;49.102;-0.370;2023-06-05T02:30:47;30.98;;;7.68;;
21527;SDS011;10925;49.102;-0.370;2023-06-05T02:33:14;28.75;;;7.32;;
21527;SDS011;10925;49.102;-0.370;2023-06-05T02:35:42;31.30;;;7.70;;
21527;SDS011;10925;49.102;-0.370;2023-06-05T02:38:09;37.00;;;8.40;;
21527;SDS011;10925;49.102;-0.370;2023-06-05T02:40:38;33.63;;;8.30;;
21527;SDS011;10925;49.102;-0.370;2023-06-05T02:43:05;25.35;;;7.28;;
21527;SDS011;10925;49.102;-0.370;2023-06-05T02:45:35;39.22;;;9.45;;
21527;SDS011;10925;49.102;-0.370;2023-06-05T02:48:02;29.30;;;8.05;;
21527;SDS011;10925;49.102;-0.370;2023-06-05T02:50:30;34.05;;;8.18;;
21527;SDS011;10925;49.102;-0.370;2023-06-05T02:53:01;31.65;;;8.07;;
21527;SDS011;10925;49.102;-0.370;2023-06-05T02:55:27;29.30;;;7.55;;
21527;SDS011;10925;49.102;-0.370;2023-06-05T02:58:00;24.98;;;8.35;;
21527;SDS011;10925;49.102;-0.370;2023-06-05T03:00:26;25.50;;;7.40;;
21527;SDS011;10925;49.102;-0.370;2023-06-05T03:02:54;36.60;;;8.30;;
21527;SDS011;10925;49.102;-0.370;2023-06-05T03:05:28;27.48;;;7.53;;
21527;SDS011;10925;49.102;-0.370;2023-06-05T03:08:03;29.27;;;8.25;;
21527;SDS011;10925;49.102;-0.370;2023-06-05T03:10:29;28.30;;;7.78;;
21527;SDS011;10925;49.102;-0.370;2023-06-05T03:12:57;23.77;;;7.65;;
21527;SDS011;10925;49.102;-0.370;2023-06-05T03:15:28;27.58;;;8.80;;
21527;SDS011;10925;49.102;-0.370;2023-06-05T03:17:55;37.50;;;9.57;;
21527;SDS011;10925;49.102;-0.370;2023-06-05T03:20:23;26.35;;;7.78;;
21527;SDS011;10925;49.102;-0.370;2023-06-05T03:22:50;24.98;;;7.32;;
21527;SDS011;10925;49.102;-0.370;2023-06-05T03:25:17;28.27;;;8.40;;
21527;SDS011;10925;49.102;-0.370;2023-06-05T03:27:43;26.38;;;7.90;;
21527;SDS011;10925;49.102;-0.370;2023-06-05T03:30:10;34.78;;;7.88;;
21527;SDS011;10925;49.102;-0.370;2023-06-05T03:32:43;29.40;;;7.60;;
21527;SDS011;10925;49.102;-0.370;2023-06-05T03:35:11;30.63;;;8.52;;
21527;SDS011;10925;49.102;-0.370;2023-06-05T03:37:39;29.73;;;9.05;;
21527;SDS011;10925;49.102;-0.370;2023-06-05T03:40:06;24.70;;;8.98;;
21527;SDS011;10925;49.102;-0.370;2023-06-05T03:42:36;25.90;;;9.48;;
21527;SDS011;10925;49.102;-0.370;2023-06-05T03:45:03;26.55;;;8.35;;
21527;SDS011;10925;49.102;-0.370;2023-06-05T03:47:30;36.05;;;8.27;;
21527;SDS011;10925;49.102;-0.370;2023-06-05T03:49:58;30.95;;;8.40;;
21527;SDS011;10925;49.102;-0.370;2023-06-05T03:52:26;28.45;;;8.70;;
21527;SDS011;10925;49.102;-0.370;2023-06-05T03:54:53;31.65;;;8.32;;
21527;SDS011;10925;49.102;-0.370;2023-06-05T03:57:22;23.17;;;7.82;;
21527;SDS011;10925;49.102;-0.370;2023-06-05T03:59:50;27.67;;;8.20;;
21527;SDS011;10925;49.102;-0.370;2023-06-05T04:02:17;23.77;;;7.97;;
21527;SDS011;10925;49.102;-0.370;2023-06-05T04:04:44;24.83;;;8.00;;
21527;SDS011;10925;49.102;-0.370;2023-06-05T04:07:09;32.58;;;7.78;;
21527;SDS011;10925;49.102;-0.370;2023-06-05T04:09:38;31.20;;;8.00;;
21527;SDS011;10925;49.102;-0.370;2023-06-05T04:12:04;28.30;;;7.88;;
21527;SDS011;10925;49.102;-0.370;2023-06-05T04:14:32;30.42;;;8.30;;
21527;SDS011;10925;49.102;-0.370;2023-06-05T04:16:59;30.98;;;8.30;;
21527;SDS011;10925;49.102;-0.370;2023-06-05T04:19:26;25.77;;;7.30;;
21527;SDS011;10925;49.102;-0.370;2023-06-05T04:21:55;27.60;;;7.20;;
21527;SDS011;10925;49.102;-0.370;2023-06-05T04:24:22;27.25;;;9.00;;
21527;SDS011;10925;49.102;-0.370;2023-06-05T04:26:51;34.15;;;9.45;;
21527;SDS011;10925;49.102;-0.370;2023-06-05T04:29:17;31.77;;;9.57;;
21527;SDS011;10925;49.102;-0.370;2023-06-05T04:31:46;19.95;;;7.70;;
21527;SDS011;10925;49.102;-0.370;2023-06-05T04:34:17;26.20;;;8.35;;
21527;SDS011;10925;49.102;-0.370;2023-06-05T04:36:45;29.08;;;9.00;;
21527;SDS011;10925;49.102;-0.370;2023-06-05T04:39:16;27.30;;;8.75;;
21527;SDS011;10925;49.102;-0.370;2023-06-05T04:41:44;27.65;;;8.20;;
21527;SDS011;10925;49.102;-0.370;2023-06-05T04:44:22;29.83;;;8.23;;
21527;SDS011;10925;49.102;-0.370;2023-06-05T04:46:50;26.58;;;8.13;;
21527;SDS011;10925;49.102;-0.370;2023-06-05T04:49:18;35.30;;;8.57;;
21527;SDS011;10925;49.102;-0.370;2023-06-05T04:51:46;27.77;;;9.27;;
21527;SDS011;10925;49.102;-0.370;2023-06-05T04:54:12;34.47;;;9.45;;
21527;SDS011;10925;49.102;-0.370;2023-06-05T04:56:38;33.67;;;9.77;;
21527;SDS011;10925;49.102;-0.370;2023-06-05T04:59:07;37.78;;;9.02;;
21527;SDS011;10925;49.102;-0.370;2023-06-05T05:01:33;34.05;;;8.63;;
21527;SDS011;10925;49.102;-0.370;2023-06-05T05:07:04;24.90;;;8.48;;
21527;SDS011;10925;49.102;-0.370;2023-06-05T05:09:32;40.05;;;9.45;;
21527;SDS011;10925;49.102;-0.370;2023-06-05T05:11:59;33.13;;;9.43;;
21527;SDS011;10925;49.102;-0.370;2023-06-05T05:14:26;29.38;;;9.13;;
21527;SDS011;10925;49.102;-0.370;2023-06-05T05:16:54;37.10;;;8.35;;
21527;SDS011;10925;49.102;-0.370;2023-06-05T05:19:22;35.22;;;8.73;;
21527;SDS011;10925;49.102;-0.370;2023-06-05T05:21:48;35.15;;;8.52;;
21527;SDS011;10925;49.102;-0.370;2023-06-05T05:24:14;29.25;;;8.93;;
21527;SDS011;10925;49.102;-0.370;2023-06-05T05:26:41;27.63;;;8.52;;
21527;SDS011;10925;49.102;-0.370;2023-06-05T05:29:08;31.33;;;7.32;;
21527;SDS011;10925;49.102;-0.370;2023-06-05T05:31:35;23.60;;;7.30;;
21527;SDS011;10925;49.102;-0.370;2023-06-05T05:34:05;26.42;;;7.15;;
21527;SDS011;10925;49.102;-0.370;2023-06-05T05:36:32;20.98;;;6.50;;
21527;SDS011;10925;49.102;-0.370;2023-06-05T05:39:00;21.98;;;6.70;;
21527;SDS011;10925;49.102;-0.370;2023-06-05T05:41:26;20.77;;;6.57;;
21527;SDS011;10925;49.102;-0.370;2023-06-05T05:43:53;16.10;;;5.95;;
21527;SDS011;10925;49.102;-0.370;2023-06-05T05:46:20;23.05;;;6.97;;
21527;SDS011;10925;49.102;-0.370;2023-06-05T05:48:47;22.40;;;5.47;;
21527;SDS011;10925;49.102;-0.370;2023-06-05T05:51:14;27.23;;;6.65;;
21527;SDS011;10925;49.102;-0.370;2023-06-05T05:53:42;27.15;;;6.43;;
21527;SDS011;10925;49.102;-0.370;2023-06-05T05:56:07;31.50;;;6.55;;
21527;SDS011;10925;49.102;-0.370;2023-06-05T05:58:33;18.25;;;6.28;;
21527;SDS011;10925;49.102;-0.370;2023-06-05T06:00:58;23.35;;;5.22;;
21527;SDS011;10925;49.102;-0.370;2023-06-05T06:03:28;16.77;;;5.53;;
21527;SDS011;10925;49.102;-0.370;2023-06-05T06:05:57;20.55;;;6.68;;
21527;SDS011;10925;49.102;-0.370;2023-06-05T06:08:24;31.13;;;7.15;;
21527;SDS011;10925;49.102;-0.370;2023-06-05T06:10:50;19.08;;;6.03;;
21527;SDS011;10925;49.102;-0.370;2023-06-05T06:13:15;22.35;;;6.18;;
21527;SDS011;10925;49.102;-0.370;2023-06-05T06:15:42;18.73;;;6.40;;
21527;SDS011;10925;49.102;-0.370;2023-06-05T06:18:09;26.33;;;7.32;;
21527;SDS011;10925;49.102;-0.370;2023-06-05T06:20:36;22.67;;;7.60;;
21527;SDS011;10925;49.102;-0.370;2023-06-05T06:23:20;25.20;;;8.13;;
21527;SDS011;10925;49.102;-0.370;2023-06-05T06:25:46;26.73;;;7.53;;
21527;SDS011;10925;49.102;-0.370;2023-06-05T06:28:11;23.90;;;6.50;;
21527;SDS011;10925;49.102;-0.370;2023-06-05T06:30:39;39.13;;;7.97;;
21527;SDS011;10925;49.102;-0.370;2023-06-05T06:33:06;23.08;;;7.30;;
21527;SDS011;10925;49.102;-0.370;2023-06-05T06:35:33;22.52;;;7.70;;
21527;SDS011;10925;49.102;-0.370;2023-06-05T06:38:00;23.27;;;7.25;;
21527;SDS011;10925;49.102;-0.370;2023-06-05T06:40:26;23.02;;;7.03;;
21527;SDS011;10925;49.102;-0.370;2023-06-05T06:42:55;20.63;;;6.75;;
21527;SDS011;10925;49.102;-0.370;2023-06-05T06:45:47;18.25;;;6.97;;
21527;SDS011;10925;49.102;-0.370;2023-06-05T06:48:15;20.58;;;6.30;;
21527;SDS011;10925;49.102;-0.370;2023-06-05T06:50:43;22.30;;;6.95;;
21527;SDS011;10925;49.102;-0.370;2023-06-05T06:53:10;27.52;;;8.10;;
21527;SDS011;10925;49.102;-0.370;2023-06-05T06:55:36;18.98;;;7.93;;
21527;SDS011;10925;49.102;-0.370;2023-06-05T06:58:04;20.23;;;7.40;;
21527;SDS011;10925;49.102;-0.370;2023-06-05T07:03:34;22.85;;;7.45;;
21527;SDS011;10925;49.102;-0.370;2023-06-05T07:06:00;25.83;;;8.07;;
21527;SDS011;10925;49.102;-0.370;2023-06-05T07:08:27;24.60;;;8.38;;
21527;SDS011;10925;49.102;-0.370;2023-06-05T07:10:54;25.40;;;8.15;;
21527;SDS011;10925;49.102;-0.370;2023-06-05T07:13:22;25.27;;;7.82;;
21527;SDS011;10925;49.102;-0.370;2023-06-05T07:15:49;17.52;;;7.68;;
21527;SDS011;10925;49.102;-0.370;2023-06-05T07:18:17;22.00;;;7.07;;
21527;SDS011;10925;49.102;-0.370;2023-06-05T07:23:10;26.25;;;8.20;;
21527;SDS011;10925;49.102;-0.370;2023-06-05T07:25:37;23.08;;;9.30;;
21527;SDS011;10925;49.102;-0.370;2023-06-05T07:28:10;22.50;;;9.45;;
21527;SDS011;10925;49.102;-0.370;2023-06-05T07:30:41;21.02;;;9.60;;
21527;SDS011;10925;49.102;-0.370;2023-06-05T07:33:06;31.30;;;11.32;;
21527;SDS011;10925;49.102;-0.370;2023-06-05T07:35:54;27.23;;;9.48;;
21527;SDS011;10925;49.102;-0.370;2023-06-05T07:38:21;27.20;;;9.07;;
21527;SDS011;10925;49.102;-0.370;2023-06-05T07:40:46;20.90;;;8.95;;
21527;SDS011;10925;49.102;-0.370;2023-06-05T07:43:13;26.20;;;9.80;;
21527;SDS011;10925;49.102;-0.370;2023-06-05T07:45:41;19.85;;;8.98;;
21527;SDS011;10925;49.102;-0.370;2023-06-05T07:48:06;21.60;;;8.18;;
21527;SDS011;10925;49.102;-0.370;2023-06-05T07:50:33;16.20;;;8.70;;
21527;SDS011;10925;49.102;-0.370;2023-06-05T07:53:00;26.35;;;10.25;;
21527;SDS011;10925;49.102;-0.370;2023-06-05T07:55:27;18.42;;;10.13;;
21527;SDS011;10925;49.102;-0.370;2023-06-05T07:57:54;20.65;;;9.75;;
21527;SDS011;10925;49.102;-0.370;2023-06-05T08:00:22;25.10;;;12.05;;
21527;SDS011;10925;49.102;-0.370;2023-06-05T08:02:49;30.95;;;12.55;;
21527;SDS011;10925;49.102;-0.370;2023-06-05T08:05:15;21.38;;;10.00;;
21527;SDS011;10925;49.102;-0.370;2023-06-05T08:07:43;30.38;;;10.75;;
21527;SDS011;10925;49.102;-0.370;2023-06-05T08:10:09;21.90;;;10.70;;
21527;SDS011;10925;49.102;-0.370;2023-06-05T08:12:36;26.38;;;13.18;;
21527;SDS011;10925;49.102;-0.370;2023-06-05T08:15:03;31.63;;;14.50;;
21527;SDS011;10925;49.102;-0.370;2023-06-05T08:17:30;28.42;;;13.75;;
21527;SDS011;10925;49.102;-0.370;2023-06-05T08:19:57;32.38;;;14.63;;
21527;SDS011;10925;49.102;-0.370;2023-06-05T08:22:24;26.80;;;12.90;;
21527;SDS011;10925;49.102;-0.370;2023-06-05T08:24:51;25.75;;;12.73;;
21527;SDS011;10925;49.102;-0.370;2023-06-05T08:27:20;26.20;;;12.60;;
21527;SDS011;10925;49.102;-0.370;2023-06-05T08:29:47;26.85;;;12.77;;
21527;SDS011;10925;49.102;-0.370;2023-06-05T08:32:13;25.77;;;12.00;;
21527;SDS011;10925;49.102;-0.370;2023-06-05T08:34:40;28.13;;;12.80;;
21527;SDS011;10925;49.102;-0.370;2023-06-05T08:37:07;27.13;;;13.55;;
21527;SDS011;10925;49.102;-0.370;2023-06-05T08:39:34;24.75;;;12.95;;
21527;SDS011;10925;49.102;-0.370;2023-06-05T08:42:01;27.15;;;12.02;;
21527;SDS011;10925;49.102;-0.370;2023-06-05T08:44:30;23.67;;;11.43;;
21527;SDS011;10925;49.102;-0.370;2023-06-05T08:47:01;29.75;;;12.00;;
21527;SDS011;10925;49.102;-0.370;2023-06-05T08:49:28;25.38;;;12.20;;
21527;SDS011;10925;49.102;-0.370;2023-06-05T08:52:05;26.80;;;12.52;;
21527;SDS011;10925;49.102;-0.370;2023-06-05T08:54:33;33.13;;;12.93;;
21527;SDS011;10925;49.102;-0.370;2023-06-05T08:57:02;24.67;;;10.50;;
21527;SDS011;10925;49.102;-0.370;2023-06-05T08:59:31;22.38;;;12.02;;
21527;SDS011;10925;49.102;-0.370;2023-06-05T09:01:57;23.00;;;12.27;;
21527;SDS011;10925;49.102;-0.370;2023-06-05T09:04:24;27.63;;;13.02;;
21527;SDS011;10925;49.102;-0.370;2023-06-05T09:06:52;25.75;;;12.63;;
21527;SDS011;10925;49.102;-0.370;2023-06-05T09:09:19;21.40;;;10.02;;
21527;SDS011;10925;49.102;-0.370;2023-06-05T09:11:46;23.58;;;10.32;;
21527;SDS011;10925;49.102;-0.370;2023-06-05T09:14:13;17.25;;;9.77;;
21527;SDS011;10925;49.102;-0.370;2023-06-05T09:16:51;20.58;;;10.10;;
21527;SDS011;10925;49.102;-0.370;2023-06-05T09:19:18;22.75;;;10.30;;
21527;SDS011;10925;49.102;-0.370;2023-06-05T09:21:51;20.88;;;9.82;;
21527;SDS011;10925;49.102;-0.370;2023-06-05T09:24:18;25.92;;;10.55;;
21527;SDS011;10925;49.102;-0.370;2023-06-05T09:29:25;24.23;;;10.57;;
21527;SDS011;10925;49.102;-0.370;2023-06-05T09:31:53;26.20;;;10.23;;
21527;SDS011;10925;49.102;-0.370;2023-06-05T09:34:20;18.13;;;8.75;;
21527;SDS011;10925;49.102;-0.370;2023-06-05T09:36:47;27.63;;;11.43;;
21527;SDS011;10925;49.102;-0.370;2023-06-05T09:39:14;21.58;;;10.57;;
21527;SDS011;10925;49.102;-0.370;2023-06-05T09:41:47;30.02;;;11.15;;
21527;SDS011;10925;49.102;-0.370;2023-06-05T09:44:15;26.10;;;10.32;;
21527;SDS011;10925;49.102;-0.370;2023-06-05T09:49:46;28.20;;;9.77;;
21527;SDS011;10925;49.102;-0.370;2023-06-05T09:52:13;26.45;;;10.18;;
21527;SDS011;10925;49.102;-0.370;2023-06-05T09:57:29;26.88;;;10.90;;
21527;SDS011;10925;49.102;-0.370;2023-06-05T09:59:57;29.17;;;10.93;;
21527;SDS011;10925;49.102;-0.370;2023-06-05T10:02:28;26.10;;;9.98;;
21527;SDS011;10925;49.102;-0.370;2023-06-05T10:05:01;21.20;;;9.98;;
21527;SDS011;10925;49.102;-0.370;2023-06-05T10:07:30;26.42;;;10.93;;
21527;SDS011;10925;49.102;-0.370;2023-06-05T10:09:57;15.77;;;8.18;;
21527;SDS011;10925;49.102;-0.370;2023-06-05T10:12:25;17.92;;;9.38;;
21527;SDS011;10925;49.102;-0.370;2023-06-05T10:14:53;23.23;;;10.43;;
21527;SDS011;10925;49.102;-0.370;2023-06-05T10:17:20;25.95;;;10.98;;
21527;SDS011;10925;49.102;-0.370;2023-06-05T10:19:46;23.30;;;10.18;;
21527;SDS011;10925;49.102;-0.370;2023-06-05T10:22:13;28.83;;;10.93;;
21527;SDS011;10925;49.102;-0.370;2023-06-05T10:24:46;17.17;;;9.00;;
21527;SDS011;10925;49.102;-0.370;2023-06-05T10:38:07;25.40;;;11.45;;
21527;SDS011;10925;49.102;-0.370;2023-06-05T10:40:56;23.35;;;11.05;;
21527;SDS011;10925;49.102;-0.370;2023-06-05T10:49:06;27.15;;;13.57;;
21527;SDS011;10925;49.102;-0.370;2023-06-05T10:51:48;28.85;;;12.10;;
21527;SDS011;10925;49.102;-0.370;2023-06-05T10:56:55;24.40;;;12.80;;
21527;SDS011;10925;49.102;-0.370;2023-06-05T11:07:16;20.52;;;10.20;;
21527;SDS011;10925;49.102;-0.370;2023-06-05T11:10:10;21.92;;;11.50;;
21527;SDS011;10925;49.102;-0.370;2023-06-05T11:17:59;27.67;;;14.52;;
21527;SDS011;10925;49.102;-0.370;2023-06-05T11:26:39;20.20;;;10.95;;
21527;SDS011;10925;49.102;-0.370;2023-06-05T11:29:14;23.63;;;12.38;;
21527;SDS011;10925;49.102;-0.370;2023-06-05T11:31:42;20.13;;;10.30;;
21527;SDS011;10925;49.102;-0.370;2023-06-05T11:34:14;31.00;;;13.30;;
21527;SDS011;10925;49.102;-0.370;2023-06-05T11:36:40;28.67;;;12.57;;
21527;SDS011;10925;49.102;-0.370;2023-06-05T11:39:14;21.83;;;13.82;;
21527;SDS011;10925;49.102;-0.370;2023-06-05T11:41:48;28.95;;;14.45;;
21527;SDS011;10925;49.102;-0.370;2023-06-05T11:44:16;27.80;;;13.90;;
21527;SDS011;10925;49.102;-0.370;2023-06-05T11:47:03;27.30;;;14.05;;
21527;SDS011;10925;49.102;-0.370;2023-06-05T11:49:31;21.27;;;11.27;;
21527;SDS011;10925;49.102;-0.370;2023-06-05T11:51:58;25.63;;;11.27;;
21527;SDS011;10925;49.102;-0.370;2023-06-05T11:54:37;28.45;;;14.13;;
21527;SDS011;10925;49.102;-0.370;2023-06-05T11:57:11;25.67;;;11.02;;
21527;SDS011;10925;49.102;-0.370;2023-06-05T11:59:39;26.33;;;12.43;;
21527;SDS011;10925;49.102;-0.370;2023-06-05T12:02:12;20.40;;;8.85;;
21527;SDS011;10925;49.102;-0.370;2023-06-05T12:04:41;31.67;;;11.05;;
21527;SDS011;10925;49.102;-0.370;2023-06-05T12:07:09;25.52;;;12.13;;
21527;SDS011;10925;49.102;-0.370;2023-06-05T12:09:35;22.83;;;10.07;;
21527;SDS011;10925;49.102;-0.370;2023-06-05T12:12:05;23.65;;;9.68;;
21527;SDS011;10925;49.102;-0.370;2023-06-05T12:14:33;32.05;;;12.32;;
21527;SDS011;10925;49.102;-0.370;2023-06-05T12:17:07;24.10;;;11.88;;
21527;SDS011;10925;49.102;-0.370;2023-06-05T12:19:33;30.48;;;14.07;;
21527;SDS011;10925;49.102;-0.370;2023-06-05T12:22:03;22.90;;;10.38;;
21527;SDS011;10925;49.102;-0.370;2023-06-05T12:24:31;25.73;;;11.10;;
21527;SDS011;10925;49.102;-0.370;2023-06-05T12:27:01;26.45;;;9.57;;
21527;SDS011;10925;49.102;-0.370;2023-06-05T12:29:31;33.17;;;13.02;;
21527;SDS011;10925;49.102;-0.370;2023-06-05T12:31:59;22.95;;;12.82;;
21527;SDS011;10925;49.102;-0.370;2023-06-05T12:34:39;29.65;;;11.80;;
21527;SDS011;10925;49.102;-0.370;2023-06-05T12:37:21;28.27;;;11.10;;
21527;SDS011;10925;49.102;-0.370;2023-06-05T12:39:48;23.60;;;10.10;;
21527;SDS011;10925;49.102;-0.370;2023-06-05T12:42:14;29.95;;;12.05;;
21527;SDS011;10925;49.102;-0.370;2023-06-05T12:44:41;24.13;;;11.48;;
21527;SDS011;10925;49.102;-0.370;2023-06-05T12:47:08;27.48;;;12.68;;
21527;SDS011;10925;49.102;-0.370;2023-06-05T12:49:35;28.08;;;11.95;;
21527;SDS011;10925;49.102;-0.370;2023-06-05T12:52:02;25.08;;;10.73;;
21527;SDS011;10925;49.102;-0.370;2023-06-05T12:54:29;23.35;;;11.43;;
21527;SDS011;10925;49.102;-0.370;2023-06-05T12:56:56;21.45;;;9.65;;
21527;SDS011;10925;49.102;-0.370;2023-06-05T12:59:22;24.20;;;10.73;;
21527;SDS011;10925;49.102;-0.370;2023-06-05T13:01:49;21.83;;;10.90;;
21527;SDS011;10925;49.102;-0.370;2023-06-05T13:04:16;22.13;;;11.00;;
21527;SDS011;10925;49.102;-0.370;2023-06-05T13:06:43;21.17;;;10.15;;
21527;SDS011;10925;49.102;-0.370;2023-06-05T13:09:10;29.70;;;10.40;;
21527;SDS011;10925;49.102;-0.370;2023-06-05T13:11:37;25.73;;;9.13;;
21527;SDS011;10925;49.102;-0.370;2023-06-05T13:14:07;32.42;;;11.05;;
21527;SDS011;10925;49.102;-0.370;2023-06-05T13:16:34;26.38;;;9.30;;
21527;SDS011;10925;49.102;-0.370;2023-06-05T13:19:01;22.35;;;9.30;;
21527;SDS011;10925;49.102;-0.370;2023-06-05T13:21:28;35.42;;;11.77;;
21527;SDS011;10925;49.102;-0.370;2023-06-05T13:23:54;31.58;;;10.90;;
21527;SDS011;10925;49.102;-0.370;2023-06-05T13:26:21;27.27;;;10.57;;
21527;SDS011;10925;49.102;-0.370;2023-06-05T13:28:48;27.52;;;10.98;;
21527;SDS011;10925;49.102;-0.370;2023-06-05T13:31:15;28.85;;;10.70;;
21527;SDS011;10925;49.102;-0.370;2023-06-05T13:33:41;24.15;;;9.25;;
21527;SDS011;10925;49.102;-0.370;2023-06-05T13:36:09;31.45;;;10.10;;
21527;SDS011;10925;49.102;-0.370;2023-06-05T13:38:36;25.00;;;8.30;;
21527;SDS011;10925;49.102;-0.370;2023-06-05T13:41:06;22.95;;;9.77;;
21527;SDS011;10925;49.102;-0.370;2023-06-05T13:43:33;24.98;;;9.73;;
21527;SDS011;10925;49.102;-0.370;2023-06-05T13:46:00;23.38;;;9.13;;
21527;SDS011;10925;49.102;-0.370;2023-06-05T13:48:29;20.67;;;8.73;;
21527;SDS011;10925;49.102;-0.370;2023-06-05T13:50:55;26.30;;;9.27;;
21527;SDS011;10925;49.102;-0.370;2023-06-05T13:53:23;24.50;;;8.02;;
21527;SDS011;10925;49.102;-0.370;2023-06-05T13:55:49;26.40;;;10.48;;
21527;SDS011;10925;49.102;-0.370;2023-06-05T13:58:16;20.85;;;7.70;;
21527;SDS011;10925;49.102;-0.370;2023-06-05T14:00:43;21.13;;;9.10;;
21527;SDS011;10925;49.102;-0.370;2023-06-05T14:03:10;22.52;;;8.75;;
21527;SDS011;10925;49.102;-0.370;2023-06-05T14:05:38;21.20;;;8.63;;
21527;SDS011;10925;49.102;-0.370;2023-06-05T14:08:05;22.20;;;7.93;;
21527;SDS011;10925;49.102;-0.370;2023-06-05T14:10:36;21.45;;;8.60;;
21527;SDS011;10925;49.102;-0.370;2023-06-05T14:13:03;24.50;;;8.40;;
21527;SDS011;10925;49.102;-0.370;2023-06-05T14:15:33;19.77;;;8.20;;
21527;SDS011;10925;49.102;-0.370;2023-06-05T14:18:03;24.23;;;8.85;;
21527;SDS011;10925;49.102;-0.370;2023-06-05T14:20:30;31.52;;;8.27;;
21527;SDS011;10925;49.102;-0.370;2023-06-05T14:22:58;20.73;;;8.43;;
21527;SDS011;10925;49.102;-0.370;2023-06-05T14:25:28;23.15;;;8.95;;
21527;SDS011;10925;49.102;-0.370;2023-06-05T14:27:55;24.45;;;8.55;;
21527;SDS011;10925;49.102;-0.370;2023-06-05T14:30:22;26.80;;;9.25;;
21527;SDS011;10925;49.102;-0.370;2023-06-05T14:32:51;22.20;;;6.85;;
21527;SDS011;10925;49.102;-0.370;2023-06-05T14:35:18;20.80;;;8.10;;
21527;SDS011;10925;49.102;-0.370;2023-06-05T14:37:47;21.50;;;6.20;;
21527;SDS011;10925;49.102;-0.370;2023-06-05T14:40:14;25.83;;;8.50;;
21527;SDS011;10925;49.102;-0.370;2023-06-05T14:42:44;24.38;;;8.55;;
21527;SDS011;10925;49.102;-0.370;2023-06-05T14:45:10;23.90;;;8.77;;
21527;SDS011;10925;49.102;-0.370;2023-06-05T14:47:36;16.25;;;6.43;;
21527;SDS011;10925;49.102;-0.370;2023-06-05T14:50:01;22.65;;;7.93;;
21527;SDS011;10925;49.102;-0.370;2023-06-05T14:52:27;25.00;;;8.10;;
21527;SDS011;10925;49.102;-0.370;2023-06-05T14:54:55;20.40;;;7.38;;
21527;SDS011;10925;49.102;-0.370;2023-06-05T14:57:28;21.88;;;7.63;;
21527;SDS011;10925;49.102;-0.370;2023-06-05T14:59:56;28.27;;;7.97;;
21527;SDS011;10925;49.102;-0.370;2023-06-05T15:02:23;24.23;;;7.40;;
21527;SDS011;10925;49.102;-0.370;2023-06-05T15:04:56;22.83;;;6.72;;
21527;SDS011;10925;49.102;-0.370;2023-06-05T15:07:36;19.50;;;6.72;;
21527;SDS011;10925;49.102;-0.370;2023-06-05T15:10:04;31.63;;;8.23;;
21527;SDS011;10925;49.102;-0.370;2023-06-05T15:12:32;28.90;;;6.75;;
21527;SDS011;10925;49.102;-0.370;2023-06-05T15:15:00;25.85;;;6.45;;
21527;SDS011;10925;49.102;-0.370;2023-06-05T15:17:45;22.42;;;6.53;;
21527;SDS011;10925;49.102;-0.370;2023-06-05T15:20:18;22.52;;;6.65;;
21527;SDS011;10925;49.102;-0.370;2023-06-05T15:22:52;27.10;;;7.45;;
21527;SDS011;10925;49.102;-0.370;2023-06-05T15:25:38;23.17;;;7.55;;